sensor_id;sensor_type;location;lat;lon;timestamp;P1;durP1;ratioP1;P2;durP2;ratioP2
72584;SDS011;60618;40.084;32.908;2023-02-28T00:00:53;19.33;;;9.02;;
72584;SDS011;60618;40.084;32.908;2023-02-28T00:03:20;15.77;;;8.02;;
72584;SDS011;60618;40.084;32.908;2023-02-28T00:05:47;15.80;;;8.13;;
72584;SDS011;60618;40.084;32.908;2023-02-28T00:08:13;20.05;;;8.77;;
72584;SDS011;60618;40.084;32.908;2023-02-28T00:10:40;14.20;;;8.20;;
72584;SDS011;60618;40.084;32.908;2023-02-28T00:13:07;16.27;;;7.18;;
72584;SDS011;60618;40.084;32.908;2023-02-28T00:15:34;19.73;;;8.88;;
72584;SDS011;60618;40.084;32.908;2023-02-28T00:18:01;15.67;;;7.50;;
72584;SDS011;60618;40.084;32.908;2023-02-28T00:20:29;15.50;;;6.70;;
72584;SDS011;60618;40.084;32.908;2023-02-28T00:22:56;16.63;;;8.10;;
72584;SDS011;60618;40.084;32.908;2023-02-28T00:25:23;18.67;;;9.55;;
72584;SDS011;60618;40.084;32.908;2023-02-28T00:27:51;15.65;;;7.38;;
72584;SDS011;60618;40.084;32.908;2023-02-28T00:30:19;19.00;;;9.67;;
72584;SDS011;60618;40.084;32.908;2023-02-28T00:32:48;17.45;;;8.77;;
72584;SDS011;60618;40.084;32.908;2023-02-28T00:35:16;17.85;;;8.60;;
72584;SDS011;60618;40.084;32.908;2023-02-28T00:37:43;17.02;;;7.63;;
72584;SDS011;60618;40.084;32.908;2023-02-28T00:40:10;15.27;;;7.70;;
72584;SDS011;60618;40.084;32.908;2023-02-28T00:42:37;15.67;;;7.40;;
72584;SDS011;60618;40.084;32.908;2023-02-28T00:45:05;15.93;;;7.22;;
72584;SDS011;60618;40.084;32.908;2023-02-28T00:47:33;21.10;;;8.32;;
72584;SDS011;60618;40.084;32.908;2023-02-28T00:50:00;15.88;;;7.65;;
72584;SDS011;60618;40.084;32.908;2023-02-28T00:52:27;17.77;;;7.28;;
72584;SDS011;60618;40.084;32.908;2023-02-28T00:54:54;13.60;;;6.63;;
72584;SDS011;60618;40.084;32.908;2023-02-28T00:57:21;13.27;;;6.90;;
72584;SDS011;60618;40.084;32.908;2023-02-28T00:59:48;14.95;;;7.00;;
72584;SDS011;60618;40.084;32.908;2023-02-28T01:02:15;15.32;;;6.85;;
72584;SDS011;60618;40.084;32.908;2023-02-28T01:04:42;11.15;;;5.85;;
72584;SDS011;60618;40.084;32.908;2023-02-28T01:07:09;17.07;;;8.80;;
72584;SDS011;60618;40.084;32.908;2023-02-28T01:09:36;18.23;;;8.70;;
72584;SDS011;60618;40.084;32.908;2023-02-28T01:12:03;18.42;;;8.45;;
72584;SDS011;60618;40.084;32.908;2023-02-28T01:14:30;21.30;;;9.30;;
72584;SDS011;60618;40.084;32.908;2023-02-28T01:16:57;18.30;;;7.93;;
72584;SDS011;60618;40.084;32.908;2023-02-28T01:19:24;15.23;;;7.03;;
72584;SDS011;60618;40.084;32.908;2023-02-28T01:21:51;13.23;;;6.43;;
72584;SDS011;60618;40.084;32.908;2023-02-28T01:24:18;19.65;;;8.60;;
72584;SDS011;60618;40.084;32.908;2023-02-28T01:26:45;14.88;;;6.97;;
72584;SDS011;60618;40.084;32.908;2023-02-28T01:29:12;17.55;;;8.88;;
72584;SDS011;60618;40.084;32.908;2023-02-28T01:31:38;16.33;;;7.50;;
72584;SDS011;60618;40.084;32.908;2023-02-28T01:34:05;16.35;;;7.60;;
72584;SDS011;60618;40.084;32.908;2023-02-28T01:36:32;15.10;;;7.32;;
72584;SDS011;60618;40.084;32.908;2023-02-28T01:38:59;16.00;;;8.25;;
72584;SDS011;60618;40.084;32.908;2023-02-28T01:41:27;16.15;;;7.55;;
72584;SDS011;60618;40.084;32.908;2023-02-28T01:47:05;15.82;;;7.45;;
72584;SDS011;60618;40.084;32.908;2023-02-28T01:49:32;15.25;;;6.95;;
72584;SDS011;60618;40.084;32.908;2023-02-28T01:51:59;22.67;;;9.10;;
72584;SDS011;60618;40.084;32.908;2023-02-28T01:54:28;15.82;;;7.28;;
72584;SDS011;60618;40.084;32.908;2023-02-28T01:56:59;15.00;;;6.93;;
72584;SDS011;60618;40.084;32.908;2023-02-28T01:59:34;16.95;;;8.57;;
72584;SDS011;60618;40.084;32.908;2023-02-28T02:02:04;17.27;;;8.70;;
72584;SDS011;60618;40.084;32.908;2023-02-28T02:04:37;18.70;;;8.90;;
72584;SDS011;60618;40.084;32.908;2023-02-28T02:07:12;14.30;;;7.43;;
72584;SDS011;60618;40.084;32.908;2023-02-28T02:09:40;14.27;;;6.20;;
72584;SDS011;60618;40.084;32.908;2023-02-28T02:12:11;18.25;;;8.20;;
72584;SDS011;60618;40.084;32.908;2023-02-28T02:17:27;20.88;;;10.00;;
72584;SDS011;60618;40.084;32.908;2023-02-28T02:28:53;15.50;;;8.30;;
72584;SDS011;60618;40.084;32.908;2023-02-28T02:31:55;25.52;;;10.90;;
72584;SDS011;60618;40.084;32.908;2023-02-28T02:39:58;25.30;;;11.68;;
72584;SDS011;60618;40.084;32.908;2023-02-28T02:42:53;20.23;;;9.52;;
72584;SDS011;60618;40.084;32.908;2023-02-28T02:45:34;19.08;;;8.20;;
72584;SDS011;60618;40.084;32.908;2023-02-28T02:48:07;25.65;;;11.93;;
72584;SDS011;60618;40.084;32.908;2023-02-28T02:50:38;20.73;;;9.00;;
72584;SDS011;60618;40.084;32.908;2023-02-28T02:53:10;22.83;;;10.25;;
72584;SDS011;60618;40.084;32.908;2023-02-28T02:55:41;28.60;;;11.65;;
72584;SDS011;60618;40.084;32.908;2023-02-28T02:58:15;27.02;;;12.40;;
72584;SDS011;60618;40.084;32.908;2023-02-28T03:00:47;25.15;;;10.75;;
72584;SDS011;60618;40.084;32.908;2023-02-28T03:03:18;20.93;;;10.30;;
72584;SDS011;60618;40.084;32.908;2023-02-28T03:05:49;27.08;;;12.00;;
72584;SDS011;60618;40.084;32.908;2023-02-28T03:08:17;20.88;;;9.55;;
72584;SDS011;60618;40.084;32.908;2023-02-28T03:10:44;22.02;;;11.02;;
72584;SDS011;60618;40.084;32.908;2023-02-28T03:13:24;20.80;;;9.57;;
72584;SDS011;60618;40.084;32.908;2023-02-28T03:18:54;25.50;;;11.88;;
72584;SDS011;60618;40.084;32.908;2023-02-28T03:24:35;22.42;;;9.55;;
72584;SDS011;60618;40.084;32.908;2023-02-28T03:27:17;26.90;;;12.48;;
72584;SDS011;60618;40.084;32.908;2023-02-28T03:29:51;24.20;;;12.30;;
72584;SDS011;60618;40.084;32.908;2023-02-28T03:35:31;27.40;;;11.70;;
72584;SDS011;60618;40.084;32.908;2023-02-28T03:38:00;22.05;;;10.88;;
72584;SDS011;60618;40.084;32.908;2023-02-28T03:40:43;23.13;;;9.07;;
72584;SDS011;60618;40.084;32.908;2023-02-28T03:43:18;25.50;;;10.77;;
72584;SDS011;60618;40.084;32.908;2023-02-28T03:45:51;21.85;;;10.60;;
72584;SDS011;60618;40.084;32.908;2023-02-28T03:48:26;21.58;;;10.02;;
72584;SDS011;60618;40.084;32.908;2023-02-28T03:51:09;17.08;;;7.60;;
72584;SDS011;60618;40.084;32.908;2023-02-28T03:53:45;16.30;;;8.68;;
72584;SDS011;60618;40.084;32.908;2023-02-28T03:56:41;21.33;;;9.57;;
72584;SDS011;60618;40.084;32.908;2023-02-28T03:59:19;23.02;;;10.88;;
72584;SDS011;60618;40.084;32.908;2023-02-28T04:01:52;28.30;;;11.90;;
72584;SDS011;60618;40.084;32.908;2023-02-28T04:04:19;24.95;;;12.13;;
72584;SDS011;60618;40.084;32.908;2023-02-28T04:06:49;31.30;;;12.75;;
72584;SDS011;60618;40.084;32.908;2023-02-28T04:09:19;24.33;;;11.47;;
72584;SDS011;60618;40.084;32.908;2023-02-28T04:11:50;28.15;;;12.32;;
72584;SDS011;60618;40.084;32.908;2023-02-28T04:14:19;27.77;;;13.00;;
72584;SDS011;60618;40.084;32.908;2023-02-28T04:16:46;23.30;;;11.07;;
72584;SDS011;60618;40.084;32.908;2023-02-28T04:19:13;19.88;;;8.95;;
72584;SDS011;60618;40.084;32.908;2023-02-28T04:21:42;19.90;;;7.97;;
72584;SDS011;60618;40.084;32.908;2023-02-28T04:24:11;16.05;;;6.40;;
72584;SDS011;60618;40.084;32.908;2023-02-28T04:26:41;19.38;;;6.72;;
72584;SDS011;60618;40.084;32.908;2023-02-28T04:29:11;24.60;;;9.55;;
72584;SDS011;60618;40.084;32.908;2023-02-28T04:31:39;22.20;;;9.40;;
72584;SDS011;60618;40.084;32.908;2023-02-28T04:34:06;19.47;;;8.80;;
72584;SDS011;60618;40.084;32.908;2023-02-28T04:36:33;25.20;;;11.93;;
72584;SDS011;60618;40.084;32.908;2023-02-28T04:39:00;25.73;;;11.63;;
72584;SDS011;60618;40.084;32.908;2023-02-28T04:41:27;28.10;;;13.30;;
72584;SDS011;60618;40.084;32.908;2023-02-28T04:43:57;24.17;;;12.43;;
72584;SDS011;60618;40.084;32.908;2023-02-28T04:46:27;24.17;;;11.10;;
72584;SDS011;60618;40.084;32.908;2023-02-28T04:48:54;23.63;;;10.93;;
72584;SDS011;60618;40.084;32.908;2023-02-28T04:51:21;26.23;;;11.55;;
72584;SDS011;60618;40.084;32.908;2023-02-28T04:53:49;22.77;;;10.93;;
72584;SDS011;60618;40.084;32.908;2023-02-28T04:56:17;25.80;;;11.93;;
72584;SDS011;60618;40.084;32.908;2023-02-28T04:58:44;25.87;;;11.00;;
72584;SDS011;60618;40.084;32.908;2023-02-28T05:01:17;26.05;;;11.80;;
72584;SDS011;60618;40.084;32.908;2023-02-28T05:03:49;20.95;;;9.10;;
72584;SDS011;60618;40.084;32.908;2023-02-28T05:06:17;26.85;;;9.90;;
72584;SDS011;60618;40.084;32.908;2023-02-28T05:08:45;20.60;;;9.98;;
72584;SDS011;60618;40.084;32.908;2023-02-28T05:11:17;22.17;;;9.63;;
72584;SDS011;60618;40.084;32.908;2023-02-28T05:13:46;16.60;;;6.30;;
72584;SDS011;60618;40.084;32.908;2023-02-28T05:16:13;14.73;;;5.93;;
72584;SDS011;60618;40.084;32.908;2023-02-28T05:18:41;17.25;;;5.40;;
72584;SDS011;60618;40.084;32.908;2023-02-28T05:23:57;21.10;;;8.10;;
72584;SDS011;60618;40.084;32.908;2023-02-28T05:26:25;24.83;;;9.43;;
72584;SDS011;60618;40.084;32.908;2023-02-28T05:28:53;24.30;;;8.77;;
72584;SDS011;60618;40.084;32.908;2023-02-28T05:31:21;21.40;;;8.20;;
72584;SDS011;60618;40.084;32.908;2023-02-28T05:33:48;21.90;;;9.50;;
72584;SDS011;60618;40.084;32.908;2023-02-28T05:36:15;20.37;;;7.40;;
72584;SDS011;60618;40.084;32.908;2023-02-28T05:38:42;21.35;;;6.65;;
72584;SDS011;60618;40.084;32.908;2023-02-28T05:41:09;15.00;;;4.97;;
72584;SDS011;60618;40.084;32.908;2023-02-28T05:43:37;17.80;;;4.90;;
72584;SDS011;60618;40.084;32.908;2023-02-28T05:46:05;14.57;;;3.90;;
72584;SDS011;60618;40.084;32.908;2023-02-28T05:48:33;11.00;;;4.00;;
72584;SDS011;60618;40.084;32.908;2023-02-28T05:51:01;17.70;;;4.32;;
72584;SDS011;60618;40.084;32.908;2023-02-28T05:53:30;15.38;;;3.97;;
72584;SDS011;60618;40.084;32.908;2023-02-28T05:55:57;16.25;;;6.07;;
72584;SDS011;60618;40.084;32.908;2023-02-28T05:58:25;16.15;;;6.07;;
72584;SDS011;60618;40.084;32.908;2023-02-28T06:00:52;16.07;;;4.60;;
72584;SDS011;60618;40.084;32.908;2023-02-28T06:03:19;13.07;;;4.35;;
72584;SDS011;60618;40.084;32.908;2023-02-28T06:05:46;11.40;;;2.80;;
72584;SDS011;60618;40.084;32.908;2023-02-28T06:08:13;9.48;;;2.78;;
72584;SDS011;60618;40.084;32.908;2023-02-28T06:10:39;10.52;;;2.97;;
72584;SDS011;60618;40.084;32.908;2023-02-28T06:13:09;12.37;;;2.77;;
72584;SDS011;60618;40.084;32.908;2023-02-28T06:15:36;8.75;;;2.42;;
72584;SDS011;60618;40.084;32.908;2023-02-28T06:18:03;9.80;;;3.13;;
72584;SDS011;60618;40.084;32.908;2023-02-28T06:20:29;13.25;;;3.70;;
72584;SDS011;60618;40.084;32.908;2023-02-28T06:22:57;16.02;;;5.00;;
72584;SDS011;60618;40.084;32.908;2023-02-28T06:25:24;15.27;;;4.70;;
72584;SDS011;60618;40.084;32.908;2023-02-28T06:27:52;14.38;;;3.95;;
72584;SDS011;60618;40.084;32.908;2023-02-28T06:30:20;21.77;;;6.57;;
72584;SDS011;60618;40.084;32.908;2023-02-28T06:32:47;17.23;;;4.90;;
72584;SDS011;60618;40.084;32.908;2023-02-28T06:35:14;24.17;;;10.88;;
72584;SDS011;60618;40.084;32.908;2023-02-28T06:37:41;27.57;;;11.33;;
72584;SDS011;60618;40.084;32.908;2023-02-28T06:40:08;22.00;;;8.55;;
72584;SDS011;60618;40.084;32.908;2023-02-28T06:42:35;22.92;;;9.40;;
72584;SDS011;60618;40.084;32.908;2023-02-28T06:45:02;28.52;;;11.75;;
72584;SDS011;60618;40.084;32.908;2023-02-28T06:47:30;29.08;;;13.32;;
72584;SDS011;60618;40.084;32.908;2023-02-28T06:49:57;32.10;;;15.20;;
72584;SDS011;60618;40.084;32.908;2023-02-28T06:52:24;32.35;;;15.95;;
72584;SDS011;60618;40.084;32.908;2023-02-28T06:54:51;33.97;;;16.73;;
72584;SDS011;60618;40.084;32.908;2023-02-28T06:57:17;39.92;;;17.70;;
72584;SDS011;60618;40.084;32.908;2023-02-28T06:59:44;39.97;;;18.08;;
72584;SDS011;60618;40.084;32.908;2023-02-28T07:02:11;35.03;;;15.23;;
72584;SDS011;60618;40.084;32.908;2023-02-28T07:04:38;38.70;;;17.50;;
72584;SDS011;60618;40.084;32.908;2023-02-28T07:07:05;37.85;;;17.00;;
72584;SDS011;60618;40.084;32.908;2023-02-28T07:09:35;40.67;;;18.63;;
72584;SDS011;60618;40.084;32.908;2023-02-28T07:12:02;37.30;;;17.38;;
72584;SDS011;60618;40.084;32.908;2023-02-28T07:14:29;37.47;;;17.27;;
72584;SDS011;60618;40.084;32.908;2023-02-28T07:16:56;33.40;;;16.25;;
72584;SDS011;60618;40.084;32.908;2023-02-28T07:19:23;40.40;;;17.10;;
72584;SDS011;60618;40.084;32.908;2023-02-28T07:21:49;36.83;;;17.52;;
72584;SDS011;60618;40.084;32.908;2023-02-28T07:24:16;38.33;;;15.52;;
72584;SDS011;60618;40.084;32.908;2023-02-28T07:26:43;28.73;;;12.97;;
72584;SDS011;60618;40.084;32.908;2023-02-28T07:29:10;28.65;;;12.07;;
72584;SDS011;60618;40.084;32.908;2023-02-28T07:31:37;25.27;;;10.52;;
72584;SDS011;60618;40.084;32.908;2023-02-28T07:34:04;29.20;;;12.77;;
72584;SDS011;60618;40.084;32.908;2023-02-28T07:36:31;25.65;;;12.20;;
72584;SDS011;60618;40.084;32.908;2023-02-28T07:38:58;25.27;;;10.40;;
72584;SDS011;60618;40.084;32.908;2023-02-28T07:41:25;26.92;;;10.82;;
72584;SDS011;60618;40.084;32.908;2023-02-28T07:43:53;28.65;;;11.95;;
72584;SDS011;60618;40.084;32.908;2023-02-28T07:46:20;25.02;;;10.15;;
72584;SDS011;60618;40.084;32.908;2023-02-28T07:48:47;23.08;;;9.88;;
72584;SDS011;60618;40.084;32.908;2023-02-28T07:51:14;31.90;;;15.53;;
72584;SDS011;60618;40.084;32.908;2023-02-28T07:53:41;30.88;;;15.45;;
72584;SDS011;60618;40.084;32.908;2023-02-28T07:56:08;31.50;;;14.85;;
72584;SDS011;60618;40.084;32.908;2023-02-28T07:58:35;35.58;;;17.80;;
72584;SDS011;60618;40.084;32.908;2023-02-28T08:01:06;34.50;;;16.13;;
72584;SDS011;60618;40.084;32.908;2023-02-28T08:03:34;24.53;;;11.53;;
72584;SDS011;60618;40.084;32.908;2023-02-28T08:06:05;19.88;;;7.90;;
72584;SDS011;60618;40.084;32.908;2023-02-28T08:08:34;23.63;;;8.40;;
72584;SDS011;60618;40.084;32.908;2023-02-28T08:11:01;19.80;;;8.13;;
72584;SDS011;60618;40.084;32.908;2023-02-28T08:13:29;20.42;;;7.13;;
72584;SDS011;60618;40.084;32.908;2023-02-28T08:15:56;17.63;;;6.30;;
72584;SDS011;60618;40.084;32.908;2023-02-28T08:18:23;16.00;;;5.85;;
72584;SDS011;60618;40.084;32.908;2023-02-28T08:20:50;18.98;;;6.00;;
72584;SDS011;60618;40.084;32.908;2023-02-28T08:23:17;15.05;;;5.90;;
72584;SDS011;60618;40.084;32.908;2023-02-28T08:25:44;19.48;;;5.90;;
72584;SDS011;60618;40.084;32.908;2023-02-28T08:28:11;17.30;;;6.30;;
72584;SDS011;60618;40.084;32.908;2023-02-28T08:30:38;17.83;;;6.53;;
72584;SDS011;60618;40.084;32.908;2023-02-28T08:33:05;21.40;;;6.82;;
72584;SDS011;60618;40.084;32.908;2023-02-28T08:35:32;17.27;;;6.20;;
72584;SDS011;60618;40.084;32.908;2023-02-28T08:38:02;16.65;;;6.88;;
72584;SDS011;60618;40.084;32.908;2023-02-28T08:40:29;23.53;;;8.00;;
72584;SDS011;60618;40.084;32.908;2023-02-28T08:42:56;17.20;;;7.13;;
72584;SDS011;60618;40.084;32.908;2023-02-28T08:45:23;17.27;;;7.80;;
72584;SDS011;60618;40.084;32.908;2023-02-28T08:47:50;23.08;;;7.47;;
72584;SDS011;60618;40.084;32.908;2023-02-28T08:50:17;20.25;;;6.60;;
72584;SDS011;60618;40.084;32.908;2023-02-28T08:52:44;18.40;;;6.77;;
72584;SDS011;60618;40.084;32.908;2023-02-28T08:55:11;17.58;;;6.15;;
72584;SDS011;60618;40.084;32.908;2023-02-28T08:57:38;18.77;;;6.35;;
72584;SDS011;60618;40.084;32.908;2023-02-28T09:00:05;17.85;;;6.57;;
72584;SDS011;60618;40.084;32.908;2023-02-28T09:02:32;18.33;;;7.00;;
72584;SDS011;60618;40.084;32.908;2023-02-28T09:04:59;20.20;;;7.20;;
72584;SDS011;60618;40.084;32.908;2023-02-28T09:07:26;16.75;;;7.18;;
72584;SDS011;60618;40.084;32.908;2023-02-28T09:09:53;15.68;;;6.68;;
72584;SDS011;60618;40.084;32.908;2023-02-28T09:12:31;32.30;;;8.55;;
72584;SDS011;60618;40.084;32.908;2023-02-28T09:14:59;14.73;;;5.65;;
72584;SDS011;60618;40.084;32.908;2023-02-28T09:17:26;16.23;;;5.83;;
72584;SDS011;60618;40.084;32.908;2023-02-28T09:19:56;14.65;;;5.20;;
72584;SDS011;60618;40.084;32.908;2023-02-28T09:22:23;15.27;;;5.05;;
72584;SDS011;60618;40.084;32.908;2023-02-28T09:24:50;14.38;;;4.97;;
72584;SDS011;60618;40.084;32.908;2023-02-28T09:27:17;17.05;;;6.63;;
72584;SDS011;60618;40.084;32.908;2023-02-28T09:29:44;15.87;;;5.97;;
72584;SDS011;60618;40.084;32.908;2023-02-28T09:32:11;14.27;;;6.40;;
72584;SDS011;60618;40.084;32.908;2023-02-28T09:34:38;17.02;;;6.32;;
72584;SDS011;60618;40.084;32.908;2023-02-28T09:37:05;15.52;;;5.05;;
72584;SDS011;60618;40.084;32.908;2023-02-28T09:39:32;13.13;;;5.53;;
72584;SDS011;60618;40.084;32.908;2023-02-28T09:41:59;11.70;;;4.67;;
72584;SDS011;60618;40.084;32.908;2023-02-28T09:44:36;14.52;;;5.60;;
72584;SDS011;60618;40.084;32.908;2023-02-28T09:47:14;13.65;;;5.60;;
72584;SDS011;60618;40.084;32.908;2023-02-28T09:49:44;15.02;;;5.75;;
72584;SDS011;60618;40.084;32.908;2023-02-28T09:52:14;16.60;;;5.55;;
72584;SDS011;60618;40.084;32.908;2023-02-28T09:54:43;17.87;;;6.07;;
72584;SDS011;60618;40.084;32.908;2023-02-28T09:57:16;15.07;;;5.93;;
72584;SDS011;60618;40.084;32.908;2023-02-28T10:05:09;13.88;;;5.53;;
72584;SDS011;60618;40.084;32.908;2023-02-28T10:12:47;14.27;;;4.43;;
72584;SDS011;60618;40.084;32.908;2023-02-28T10:15:19;13.48;;;4.20;;
72584;SDS011;60618;40.084;32.908;2023-02-28T10:17:51;14.23;;;4.68;;
72584;SDS011;60618;40.084;32.908;2023-02-28T10:20:35;12.93;;;4.60;;
72584;SDS011;60618;40.084;32.908;2023-02-28T10:23:13;12.55;;;4.50;;
72584;SDS011;60618;40.084;32.908;2023-02-28T10:26:05;12.88;;;4.18;;
72584;SDS011;60618;40.084;32.908;2023-02-28T10:28:39;13.98;;;4.05;;
72584;SDS011;60618;40.084;32.908;2023-02-28T10:31:08;17.95;;;4.40;;
72584;SDS011;60618;40.084;32.908;2023-02-28T10:33:41;12.60;;;3.50;;
72584;SDS011;60618;40.084;32.908;2023-02-28T10:36:08;12.75;;;3.92;;
72584;SDS011;60618;40.084;32.908;2023-02-28T10:38:40;16.58;;;4.88;;
72584;SDS011;60618;40.084;32.908;2023-02-28T10:41:11;14.32;;;4.88;;
72584;SDS011;60618;40.084;32.908;2023-02-28T10:43:43;14.40;;;3.90;;
72584;SDS011;60618;40.084;32.908;2023-02-28T10:46:12;19.63;;;4.67;;
72584;SDS011;60618;40.084;32.908;2023-02-28T10:48:47;14.85;;;4.28;;
72584;SDS011;60618;40.084;32.908;2023-02-28T10:51:23;14.35;;;4.13;;
72584;SDS011;60618;40.084;32.908;2023-02-28T10:53:51;11.63;;;4.40;;
72584;SDS011;60618;40.084;32.908;2023-02-28T10:56:30;13.95;;;4.20;;
72584;SDS011;60618;40.084;32.908;2023-02-28T11:01:46;13.02;;;4.20;;
72584;SDS011;60618;40.084;32.908;2023-02-28T11:06:56;13.50;;;3.70;;
72584;SDS011;60618;40.084;32.908;2023-02-28T11:09:35;11.70;;;3.67;;
72584;SDS011;60618;40.084;32.908;2023-02-28T11:12:16;11.53;;;3.60;;
72584;SDS011;60618;40.084;32.908;2023-02-28T11:14:50;12.35;;;3.83;;
72584;SDS011;60618;40.084;32.908;2023-02-28T11:17:22;12.05;;;3.50;;
72584;SDS011;60618;40.084;32.908;2023-02-28T11:19:51;13.10;;;3.90;;
72584;SDS011;60618;40.084;32.908;2023-02-28T11:22:22;11.38;;;3.45;;
72584;SDS011;60618;40.084;32.908;2023-02-28T11:24:53;14.73;;;3.30;;
72584;SDS011;60618;40.084;32.908;2023-02-28T11:27:45;14.18;;;3.80;;
72584;SDS011;60618;40.084;32.908;2023-02-28T11:30:26;9.63;;;3.20;;
72584;SDS011;60618;40.084;32.908;2023-02-28T11:32:58;13.65;;;3.63;;
72584;SDS011;60618;40.084;32.908;2023-02-28T11:38:09;9.70;;;3.23;;
72584;SDS011;60618;40.084;32.908;2023-02-28T11:40:42;10.55;;;3.00;;
72584;SDS011;60618;40.084;32.908;2023-02-28T11:43:44;9.90;;;2.55;;
72584;SDS011;60618;40.084;32.908;2023-02-28T12:20:35;14.17;;;3.20;;
72584;SDS011;60618;40.084;32.908;2023-02-28T12:28:38;11.55;;;3.60;;
72584;SDS011;60618;40.084;32.908;2023-02-28T12:31:29;10.43;;;3.50;;
72584;SDS011;60618;40.084;32.908;2023-02-28T12:34:03;18.83;;;3.53;;
72584;SDS011;60618;40.084;32.908;2023-02-28T12:37:03;12.70;;;4.15;;
72584;SDS011;60618;40.084;32.908;2023-02-28T12:39:38;11.35;;;4.00;;
72584;SDS011;60618;40.084;32.908;2023-02-28T12:45:24;16.88;;;6.32;;
72584;SDS011;60618;40.084;32.908;2023-02-28T12:48:00;19.90;;;12.30;;
72584;SDS011;60618;40.084;32.908;2023-02-28T12:50:30;12.13;;;5.28;;
72584;SDS011;60618;40.084;32.908;2023-02-28T12:58:39;19.95;;;7.60;;
72584;SDS011;60618;40.084;32.908;2023-02-28T13:01:36;31.90;;;18.93;;
72584;SDS011;60618;40.084;32.908;2023-02-28T13:04:32;20.35;;;9.43;;
72584;SDS011;60618;40.084;32.908;2023-02-28T13:09:53;11.50;;;4.50;;
72584;SDS011;60618;40.084;32.908;2023-02-28T13:12:22;11.40;;;3.00;;
72584;SDS011;60618;40.084;32.908;2023-02-28T13:14:49;16.50;;;3.73;;
72584;SDS011;60618;40.084;32.908;2023-02-28T13:17:26;30.35;;;15.57;;
72584;SDS011;60618;40.084;32.908;2023-02-28T13:24:53;34.47;;;15.40;;
72584;SDS011;60618;40.084;32.908;2023-02-28T13:27:22;27.27;;;9.73;;
72584;SDS011;60618;40.084;32.908;2023-02-28T13:29:50;27.25;;;11.60;;
72584;SDS011;60618;40.084;32.908;2023-02-28T13:39:50;10.73;;;3.90;;
72584;SDS011;60618;40.084;32.908;2023-02-28T13:42:33;16.20;;;5.88;;
72584;SDS011;60618;40.084;32.908;2023-02-28T13:47:29;36.78;;;10.70;;
72584;SDS011;60618;40.084;32.908;2023-02-28T13:53:11;13.50;;;3.27;;
72584;SDS011;60618;40.084;32.908;2023-02-28T13:56:05;13.80;;;3.47;;
72584;SDS011;60618;40.084;32.908;2023-02-28T14:01:28;14.00;;;4.22;;
72584;SDS011;60618;40.084;32.908;2023-02-28T14:06:47;10.37;;;3.00;;
72584;SDS011;60618;40.084;32.908;2023-02-28T14:11:55;12.90;;;3.65;;
72584;SDS011;60618;40.084;32.908;2023-02-28T14:17:12;16.38;;;3.80;;
72584;SDS011;60618;40.084;32.908;2023-02-28T14:19:46;13.53;;;3.40;;
72584;SDS011;60618;40.084;32.908;2023-02-28T14:28:10;18.98;;;5.30;;
72584;SDS011;60618;40.084;32.908;2023-02-28T14:36:37;21.55;;;8.95;;
72584;SDS011;60618;40.084;32.908;2023-02-28T14:39:17;34.33;;;12.98;;
72584;SDS011;60618;40.084;32.908;2023-02-28T14:41:47;27.98;;;9.80;;
72584;SDS011;60618;40.084;32.908;2023-02-28T14:44:16;21.42;;;5.68;;
72584;SDS011;60618;40.084;32.908;2023-02-28T14:46:46;18.80;;;4.90;;
72584;SDS011;60618;40.084;32.908;2023-02-28T14:49:24;15.82;;;3.97;;
72584;SDS011;60618;40.084;32.908;2023-02-28T14:52:28;17.90;;;4.03;;
72584;SDS011;60618;40.084;32.908;2023-02-28T14:55:00;17.02;;;4.35;;
72584;SDS011;60618;40.084;32.908;2023-02-28T14:57:33;10.85;;;3.03;;
72584;SDS011;60618;40.084;32.908;2023-02-28T15:02:43;13.68;;;3.72;;
72584;SDS011;60618;40.084;32.908;2023-02-28T15:07:40;15.73;;;4.70;;
72584;SDS011;60618;40.084;32.908;2023-02-28T15:10:13;18.52;;;4.15;;
72584;SDS011;60618;40.084;32.908;2023-02-28T15:12:51;11.90;;;3.90;;
72584;SDS011;60618;40.084;32.908;2023-02-28T15:15:19;12.25;;;3.80;;
72584;SDS011;60618;40.084;32.908;2023-02-28T15:18:01;13.52;;;4.28;;
72584;SDS011;60618;40.084;32.908;2023-02-28T15:20:32;18.55;;;4.25;;
72584;SDS011;60618;40.084;32.908;2023-02-28T15:23:00;18.92;;;4.95;;
72584;SDS011;60618;40.084;32.908;2023-02-28T15:25:28;16.73;;;5.37;;
72584;SDS011;60618;40.084;32.908;2023-02-28T15:27:55;18.35;;;4.90;;
72584;SDS011;60618;40.084;32.908;2023-02-28T15:30:27;18.38;;;5.28;;
72584;SDS011;60618;40.084;32.908;2023-02-28T15:35:38;17.13;;;5.00;;
72584;SDS011;60618;40.084;32.908;2023-02-28T15:38:15;17.50;;;5.80;;
72584;SDS011;60618;40.084;32.908;2023-02-28T15:40:53;20.67;;;6.35;;
72584;SDS011;60618;40.084;32.908;2023-02-28T15:43:25;19.98;;;6.55;;
72584;SDS011;60618;40.084;32.908;2023-02-28T15:48:29;17.60;;;6.97;;
72584;SDS011;60618;40.084;32.908;2023-02-28T15:53:41;17.75;;;6.25;;
72584;SDS011;60618;40.084;32.908;2023-02-28T15:56:28;20.20;;;6.85;;
72584;SDS011;60618;40.084;32.908;2023-02-28T15:59:18;19.92;;;6.82;;
72584;SDS011;60618;40.084;32.908;2023-02-28T16:02:01;15.43;;;6.60;;
72584;SDS011;60618;40.084;32.908;2023-02-28T16:04:30;22.70;;;6.57;;
72584;SDS011;60618;40.084;32.908;2023-02-28T16:09:24;20.15;;;6.57;;
72584;SDS011;60618;40.084;32.908;2023-02-28T16:11:52;19.83;;;7.22;;
72584;SDS011;60618;40.084;32.908;2023-02-28T16:14:22;18.05;;;6.32;;
72584;SDS011;60618;40.084;32.908;2023-02-28T16:16:52;21.30;;;6.37;;
72584;SDS011;60618;40.084;32.908;2023-02-28T16:19:23;21.05;;;6.47;;
72584;SDS011;60618;40.084;32.908;2023-02-28T16:21:50;18.92;;;6.68;;
72584;SDS011;60618;40.084;32.908;2023-02-28T16:24:17;19.55;;;6.93;;
72584;SDS011;60618;40.084;32.908;2023-02-28T16:26:48;22.25;;;6.78;;
72584;SDS011;60618;40.084;32.908;2023-02-28T16:29:19;18.87;;;6.10;;
72584;SDS011;60618;40.084;32.908;2023-02-28T16:32:06;18.02;;;6.55;;
72584;SDS011;60618;40.084;32.908;2023-02-28T16:34:36;16.60;;;5.72;;
72584;SDS011;60618;40.084;32.908;2023-02-28T16:37:04;17.63;;;6.10;;
72584;SDS011;60618;40.084;32.908;2023-02-28T16:39:37;19.52;;;6.43;;
72584;SDS011;60618;40.084;32.908;2023-02-28T16:42:05;16.53;;;5.73;;
72584;SDS011;60618;40.084;32.908;2023-02-28T16:44:33;16.55;;;5.80;;
72584;SDS011;60618;40.084;32.908;2023-02-28T16:47:03;16.55;;;5.80;;
72584;SDS011;60618;40.084;32.908;2023-02-28T16:49:30;17.83;;;6.07;;
72584;SDS011;60618;40.084;32.908;2023-02-28T16:51:57;15.35;;;6.05;;
72584;SDS011;60618;40.084;32.908;2023-02-28T16:54:24;19.17;;;7.13;;
72584;SDS011;60618;40.084;32.908;2023-02-28T16:56:51;18.17;;;7.45;;
72584;SDS011;60618;40.084;32.908;2023-02-28T16:59:19;16.98;;;6.03;;
72584;SDS011;60618;40.084;32.908;2023-02-28T17:01:52;18.77;;;6.88;;
72584;SDS011;60618;40.084;32.908;2023-02-28T17:04:20;19.08;;;7.65;;
72584;SDS011;60618;40.084;32.908;2023-02-28T17:06:47;22.50;;;6.90;;
72584;SDS011;60618;40.084;32.908;2023-02-28T17:09:19;23.20;;;7.47;;
72584;SDS011;60618;40.084;32.908;2023-02-28T17:11:56;22.17;;;9.15;;
72584;SDS011;60618;40.084;32.908;2023-02-28T17:14:23;22.77;;;8.73;;
72584;SDS011;60618;40.084;32.908;2023-02-28T17:16:50;22.45;;;8.45;;